createdAt,value
2019-04-29T00:01:33.916Z,7.80
2019-04-29T00:12:17.263Z,4.40
2019-04-29T00:23:00.336Z,4.10
2019-04-29T00:33:44.066Z,4.10
2019-04-29T00:44:26.042Z,5.50
2019-04-29T00:55:10.073Z,4.80
2019-04-29T01:05:46.364Z,7.40
2019-04-29T01:16:29.990Z,8.80
2019-04-29T01:27:06.357Z,6.00
2019-04-29T01:37:50.292Z,3.10
2019-04-29T01:48:26.112Z,4.10
2019-04-29T01:59:10.093Z,3.10
2019-04-29T02:09:48.054Z,3.40
2019-04-29T02:20:30.986Z,3.60
2019-04-29T02:31:13.964Z,3.60
2019-04-29T02:41:56.269Z,3.10
2019-04-29T02:52:39.046Z,3.30
2019-04-29T03:03:23.648Z,3.50
2019-04-29T03:14:04.294Z,3.40
2019-04-29T03:24:47.117Z,3.70
2019-04-29T03:35:27.416Z,2.80
2019-04-29T03:46:11.164Z,3.60
2019-04-29T03:56:55.022Z,4.20
2019-04-29T04:07:32.218Z,3.10
2019-04-29T04:18:15.430Z,4.20
2019-04-29T04:28:57.067Z,5.80
2019-04-29T04:39:39.606Z,4.10
2019-04-29T04:50:23.079Z,4.70
2019-04-29T05:01:07.037Z,7.20
2019-04-29T05:11:49.807Z,6.90
2019-04-29T05:22:33.021Z,6.30
2019-04-29T05:33:17.346Z,6.20
2019-04-29T05:44:02.617Z,10.10
2019-04-29T05:54:47.131Z,14.10
2019-04-29T06:05:32.330Z,7.70
2019-04-29T06:16:21.069Z,8.60
2019-04-29T06:27:02.382Z,8.20
2019-04-29T06:37:47.427Z,8.90
2019-04-29T06:48:30.604Z,10.40
2019-04-29T06:59:07.578Z,10.60
2019-04-29T07:09:49.605Z,9.10
2019-04-29T07:20:32.364Z,7.70
2019-04-29T07:31:13.507Z,7.30
2019-04-29T07:41:56.363Z,7.60
2019-04-29T07:52:41.225Z,8.80
2019-04-29T08:03:24.583Z,10.60
2019-04-29T08:14:06.465Z,13.20
2019-04-29T08:24:52.164Z,15.30
2019-04-29T08:35:36.869Z,18.30
2019-04-29T08:46:15.275Z,18.70
2019-04-29T08:57:02.883Z,17.90
2019-04-29T09:07:43.582Z,18.50
2019-04-29T09:18:11.422Z,17.40
2019-04-29T09:28:54.266Z,15.60
2019-04-29T09:39:43.498Z,16.40
2019-04-29T09:50:17.313Z,16.00
2019-04-29T10:00:59.887Z,13.00
2019-04-29T10:11:42.501Z,14.70
2019-04-29T10:22:21.571Z,14.80
2019-04-29T10:33:03.230Z,13.20
2019-04-29T10:43:53.760Z,11.90
2019-04-29T10:54:34.464Z,12.90
2019-04-29T11:05:17.584Z,13.30
2019-04-29T11:16:00.284Z,12.00
2019-04-29T11:26:44.776Z,15.50
2019-04-29T11:37:27.722Z,12.80
2019-04-29T11:48:11.284Z,12.90
2019-04-29T11:58:56.632Z,11.70
2019-04-29T12:09:35.346Z,14.00
2019-04-29T12:20:07.436Z,13.40
2019-04-29T12:30:40.652Z,14.20
2019-04-29T12:41:21.134Z,15.20
2019-04-29T12:51:57.472Z,15.30
2019-04-29T13:02:36.405Z,15.00
2019-04-29T13:13:15.776Z,15.60
2019-04-29T13:24:05.004Z,18.00
2019-04-29T13:34:32.860Z,18.20
2019-04-29T13:45:14.171Z,17.30
2019-04-29T13:56:10.538Z,12.70
2019-04-29T14:06:27.495Z,12.30
2019-04-29T14:17:24.157Z,15.50
2019-04-29T14:27:40.655Z,13.10
2019-04-29T14:38:24.195Z,14.00
2019-04-29T14:49:04.502Z,16.00
2019-04-29T14:59:36.181Z,17.80
2019-04-29T15:10:07.228Z,15.40
2019-04-29T15:20:45.620Z,20.20
2019-04-29T15:31:24.682Z,16.00
2019-04-29T15:42:06.563Z,18.20
2019-04-29T15:52:46.544Z,18.40
2019-04-29T16:03:29.489Z,16.00
2019-04-29T16:14:11.668Z,16.30
2019-04-29T16:24:48.878Z,16.60
2019-04-29T16:35:27.070Z,19.30
2019-04-29T16:46:05.836Z,15.80
2019-04-29T16:56:45.063Z,15.60
2019-04-29T17:07:24.826Z,13.40
2019-04-29T17:17:57.509Z,10.00
2019-04-29T17:28:30.057Z,7.10
2019-04-29T17:39:03.610Z,6.40
2019-04-29T17:49:38.305Z,8.00
2019-04-29T18:00:15.819Z,11.00
2019-04-29T18:10:55.727Z,13.20
2019-04-29T18:21:31.689Z,8.80
2019-04-29T18:32:11.583Z,57.40
2019-04-29T18:42:51.950Z,8.10
2019-04-29T18:53:30.791Z,8.70
2019-04-29T19:04:16.070Z,9.30
2019-04-29T19:14:40.360Z,12.50
2019-04-29T19:25:16.918Z,8.90
2019-04-29T19:35:50.639Z,10.00
2019-04-29T19:46:36.848Z,10.10
2019-04-29T19:57:06.114Z,19.90
2019-04-29T20:07:40.816Z,11.20
2019-04-29T20:18:11.934Z,13.60
2019-04-29T20:28:51.100Z,15.40
2019-04-29T20:39:28.222Z,14.80
2019-04-29T20:50:13.904Z,17.30
2019-04-29T21:00:48.994Z,18.30
2019-04-29T21:11:22.295Z,23.40
2019-04-29T21:21:58.619Z,23.90
2019-04-29T21:32:39.070Z,31.00
2019-04-29T21:43:17.894Z,34.90
2019-04-29T21:53:56.887Z,83.80
2019-04-29T22:04:37.366Z,47.60
2019-04-29T22:15:10.986Z,51.90
2019-04-29T22:25:45.799Z,52.90
2019-04-29T22:36:25.013Z,52.30
2019-04-29T22:47:01.012Z,56.80
2019-04-29T22:57:39.707Z,65.10
2019-04-29T23:08:22.637Z,64.90
2019-04-29T23:19:09.845Z,53.10
2019-04-29T23:29:43.220Z,51.70
2019-04-29T23:40:23.885Z,47.70
2019-04-29T23:51:07.807Z,42.80
